createdAt,value
2023-05-08T00:01:49.965Z,12.73
2023-05-08T00:04:30.694Z,10.40
2023-05-08T00:07:06.387Z,10.75
2023-05-08T00:09:44.909Z,9.40
2023-05-08T00:12:21.474Z,11.13
2023-05-08T00:14:58.242Z,10.68
2023-05-08T00:17:35.241Z,9.13
2023-05-08T00:20:19.128Z,13.90
2023-05-08T00:22:55.875Z,9.73
2023-05-08T00:25:36.597Z,10.10
2023-05-08T00:28:12.791Z,11.07
2023-05-08T00:30:51.177Z,9.45
2023-05-08T00:33:26.894Z,11.25
2023-05-08T00:36:08.699Z,11.68
2023-05-08T00:38:47.962Z,10.95
2023-05-08T00:41:22.565Z,14.50
2023-05-08T00:43:59.117Z,13.10
2023-05-08T00:46:37.410Z,13.00
2023-05-08T00:49:15.826Z,15.63
2023-05-08T00:51:59.085Z,13.13
2023-05-08T00:54:35.239Z,16.70
2023-05-08T00:57:11.435Z,16.60
2023-05-08T00:59:49.354Z,13.65
2023-05-08T01:02:26.520Z,14.65
2023-05-08T01:05:04.373Z,11.43
2023-05-08T01:07:44.571Z,16.95
2023-05-08T01:10:22.773Z,12.88
2023-05-08T01:12:57.783Z,12.60
2023-05-08T01:15:47.805Z,12.13
2023-05-08T01:18:25.686Z,13.83
2023-05-08T01:21:04.543Z,12.48
2023-05-08T01:24:20.854Z,13.40
2023-05-08T01:26:56.523Z,11.80
2023-05-08T01:30:00.559Z,12.30
2023-05-08T01:32:43.282Z,11.45
2023-05-08T01:35:21.572Z,11.63
2023-05-08T01:37:59.711Z,12.88
2023-05-08T01:40:38.326Z,13.70
2023-05-08T01:43:17.926Z,12.27
2023-05-08T01:45:54.715Z,11.10
2023-05-08T01:48:36.306Z,13.15
2023-05-08T01:51:17.163Z,12.23
2023-05-08T01:53:53.646Z,12.98
2023-05-08T01:56:32.222Z,10.70
2023-05-08T01:59:08.837Z,10.02
2023-05-08T02:01:44.233Z,11.80
2023-05-08T02:04:25.383Z,11.73
2023-05-08T02:07:00.977Z,10.35
2023-05-08T02:09:38.203Z,10.27
2023-05-08T02:12:14.121Z,10.48
2023-05-08T02:14:50.375Z,12.87
2023-05-08T02:17:25.280Z,15.55
2023-05-08T02:20:06.034Z,12.90
2023-05-08T02:22:41.559Z,13.30
2023-05-08T02:25:21.354Z,8.82
2023-05-08T02:27:56.756Z,13.23
2023-05-08T02:30:31.752Z,10.68
2023-05-08T02:33:08.726Z,11.38
2023-05-08T02:35:48.467Z,11.70
2023-05-08T02:38:26.064Z,9.70
2023-05-08T02:41:04.089Z,11.40
2023-05-08T02:43:43.106Z,13.55
2023-05-08T02:46:17.971Z,12.25
2023-05-08T02:49:02.579Z,13.15
2023-05-08T02:51:51.052Z,12.05
2023-05-08T02:54:29.389Z,12.30
2023-05-08T02:57:08.717Z,10.73
2023-05-08T02:59:42.772Z,11.70
2023-05-08T03:02:28.942Z,10.02
2023-05-08T03:05:10.672Z,9.70
2023-05-08T03:07:54.324Z,11.80
2023-05-08T03:10:33.304Z,8.77
2023-05-08T03:13:10.847Z,10.45
2023-05-08T03:15:50.459Z,10.40
2023-05-08T03:18:31.156Z,7.67
2023-05-08T03:21:10.251Z,14.57
2023-05-08T03:23:49.697Z,13.10
2023-05-08T03:26:25.852Z,11.90
2023-05-08T03:31:40.748Z,10.55
2023-05-08T03:34:17.068Z,12.93
2023-05-08T03:36:52.265Z,11.00
2023-05-08T03:39:32.254Z,12.05
2023-05-08T03:42:10.577Z,8.80
2023-05-08T03:44:45.897Z,11.43
2023-05-08T03:47:24.685Z,8.23
2023-05-08T03:49:59.878Z,10.50
2023-05-08T03:52:37.313Z,9.50
2023-05-08T03:55:11.694Z,10.10
2023-05-08T03:57:55.562Z,11.30
2023-05-08T04:00:38.499Z,11.00
2023-05-08T04:03:25.036Z,9.47
2023-05-08T04:06:04.449Z,11.75
2023-05-08T04:08:48.288Z,11.38
2023-05-08T04:11:28.090Z,9.10
2023-05-08T04:14:09.870Z,9.48
2023-05-08T04:16:51.816Z,12.02
2023-05-08T04:19:26.780Z,12.32
2023-05-08T04:22:03.118Z,9.18
2023-05-08T04:24:40.988Z,9.25
2023-05-08T04:27:20.936Z,9.35
2023-05-08T04:30:00.878Z,8.38
2023-05-08T04:32:41.385Z,11.00
2023-05-08T04:35:22.275Z,9.50
2023-05-08T04:38:00.247Z,9.05
2023-05-08T04:40:35.046Z,8.07
2023-05-08T04:43:12.324Z,9.40
2023-05-08T04:45:50.578Z,9.63
2023-05-08T04:48:26.498Z,11.32
2023-05-08T04:51:05.089Z,8.30
2023-05-08T04:53:40.560Z,6.40
2023-05-08T04:56:20.309Z,6.63
2023-05-08T04:58:56.870Z,9.13
2023-05-08T05:01:37.241Z,8.00
2023-05-08T05:04:15.114Z,8.40
2023-05-08T05:06:51.720Z,6.82
2023-05-08T05:09:30.748Z,8.93
2023-05-08T05:12:08.522Z,7.63
2023-05-08T05:14:46.492Z,6.43
2023-05-08T05:17:22.420Z,6.20
2023-05-08T05:20:04.628Z,14.65
2023-05-08T05:22:40.587Z,11.10
2023-05-08T05:25:20.737Z,7.35
2023-05-08T05:27:59.759Z,6.53
2023-05-08T05:30:36.913Z,6.87
2023-05-08T05:33:16.322Z,13.50
2023-05-08T05:35:59.429Z,6.72
2023-05-08T05:38:36.505Z,8.27
2023-05-08T05:41:14.054Z,7.03
2023-05-08T05:43:51.636Z,10.07
2023-05-08T05:46:32.897Z,6.50
2023-05-08T05:49:17.854Z,13.90
2023-05-08T05:52:04.197Z,7.15
2023-05-08T05:54:49.098Z,8.40
2023-05-08T05:57:26.987Z,9.80
2023-05-08T06:00:06.363Z,7.80
2023-05-08T06:02:50.218Z,7.55
2023-05-08T06:05:29.816Z,6.53
2023-05-08T06:08:13.564Z,10.35
2023-05-08T06:10:51.757Z,7.90
2023-05-08T06:13:29.159Z,7.68
2023-05-08T06:16:08.515Z,7.28
2023-05-08T06:18:48.736Z,9.75
2023-05-08T06:21:30.155Z,5.95
2023-05-08T06:24:09.917Z,6.40
2023-05-08T06:26:47.433Z,7.05
2023-05-08T06:29:27.130Z,7.18
2023-05-08T06:32:10.829Z,9.38
2023-05-08T06:34:49.737Z,6.83
2023-05-08T06:37:26.131Z,5.28
2023-05-08T06:40:12.148Z,124.90
2023-05-08T06:42:49.075Z,11.10
2023-05-08T06:45:25.292Z,8.15
2023-05-08T06:48:02.986Z,6.20
2023-05-08T06:50:43.480Z,7.47
2023-05-08T06:53:23.309Z,7.85
2023-05-08T06:56:03.717Z,7.93
2023-05-08T06:58:46.316Z,6.05
2023-05-08T07:01:30.104Z,6.30
2023-05-08T07:04:09.537Z,9.77
2023-05-08T07:06:53.873Z,6.60
2023-05-08T07:09:38.258Z,5.10
2023-05-08T07:12:21.318Z,6.45
2023-05-08T07:15:07.768Z,7.88
2023-05-08T07:17:59.641Z,4.80
2023-05-08T07:23:16.520Z,8.05
2023-05-08T07:25:56.638Z,8.50
2023-05-08T07:28:38.560Z,7.57
2023-05-08T07:31:15.335Z,4.43
2023-05-08T07:33:52.541Z,7.03
2023-05-08T07:36:31.410Z,10.75
2023-05-08T07:39:12.811Z,3.80
2023-05-08T07:41:51.901Z,6.22
2023-05-08T07:44:37.445Z,8.00
2023-05-08T07:47:22.417Z,5.43
2023-05-08T07:50:10.220Z,5.10
2023-05-08T07:52:50.382Z,4.50
2023-05-08T07:55:38.549Z,3.97
2023-05-08T07:58:15.704Z,3.70
2023-05-08T08:00:59.930Z,6.97
2023-05-08T08:03:36.874Z,5.90
2023-05-08T08:06:14.010Z,6.07
2023-05-08T08:08:51.205Z,3.83
2023-05-08T08:11:37.385Z,4.45
2023-05-08T08:14:17.750Z,4.68
2023-05-08T08:16:59.294Z,4.75
2023-05-08T08:19:39.885Z,4.75
2023-05-08T08:22:19.412Z,3.92
2023-05-08T08:25:06.082Z,16.20
2023-05-08T08:27:44.601Z,4.53
2023-05-08T08:30:21.926Z,5.60
2023-05-08T08:33:04.338Z,7.38
2023-05-08T08:35:44.657Z,5.55
2023-05-08T08:38:24.922Z,7.03
2023-05-08T08:41:05.185Z,5.13
2023-05-08T08:43:44.021Z,8.45
2023-05-08T08:46:21.834Z,5.00
2023-05-08T08:49:03.151Z,6.68
2023-05-08T08:51:56.459Z,4.87
2023-05-08T08:54:37.628Z,5.70
2023-05-08T08:57:14.026Z,3.05
2023-05-08T08:59:50.603Z,5.37
2023-05-08T09:02:27.162Z,5.38
2023-05-08T09:05:06.682Z,4.17
2023-05-08T09:07:50.516Z,6.45
2023-05-08T09:10:32.683Z,4.80
2023-05-08T09:13:11.160Z,6.23
2023-05-08T09:15:51.071Z,4.53
2023-05-08T09:18:27.913Z,4.13
2023-05-08T09:21:15.070Z,4.90
2023-05-08T09:24:00.713Z,3.50
2023-05-08T09:26:37.915Z,7.80
2023-05-08T09:29:14.986Z,4.40
2023-05-08T09:31:52.908Z,5.95
2023-05-08T09:34:31.104Z,4.65
2023-05-08T09:37:21.735Z,4.45
2023-05-08T09:40:00.968Z,6.00
2023-05-08T09:42:36.612Z,10.90
2023-05-08T09:45:16.330Z,8.45
2023-05-08T09:48:00.510Z,5.80
2023-05-08T09:50:43.639Z,5.55
2023-05-08T09:53:22.863Z,7.30
2023-05-08T09:56:04.284Z,5.35
2023-05-08T09:58:48.806Z,4.93
2023-05-08T10:01:22.754Z,8.15
2023-05-08T10:04:04.570Z,9.80
2023-05-08T10:06:41.022Z,4.80
2023-05-08T10:09:27.378Z,6.30
2023-05-08T10:12:08.849Z,5.70
2023-05-08T10:14:46.782Z,6.45
2023-05-08T10:17:36.723Z,5.10
2023-05-08T10:20:35.599Z,5.57
2023-05-08T10:23:14.662Z,9.52
2023-05-08T10:25:57.347Z,5.70
2023-05-08T10:28:37.203Z,6.80
2023-05-08T10:31:16.022Z,5.80
2023-05-08T10:33:52.789Z,8.32
2023-05-08T10:39:07.056Z,5.80
2023-05-08T10:42:02.482Z,6.68
2023-05-08T10:44:38.406Z,9.05
2023-05-08T10:47:19.224Z,4.75
2023-05-08T10:49:59.118Z,6.37
2023-05-08T10:52:38.134Z,5.60
2023-05-08T10:55:20.319Z,7.22
2023-05-08T10:57:59.443Z,5.65
2023-05-08T11:00:56.637Z,7.05
2023-05-08T11:03:34.250Z,8.63
2023-05-08T11:06:11.448Z,9.70
2023-05-08T11:08:52.137Z,6.18
2023-05-08T11:11:33.932Z,6.85
2023-05-08T11:14:16.846Z,4.70
2023-05-08T11:17:11.485Z,5.13
2023-05-08T11:20:01.444Z,8.00
2023-05-08T11:22:41.407Z,4.70
2023-05-08T11:25:17.722Z,7.47
2023-05-08T11:28:17.404Z,10.23
2023-05-08T11:30:57.373Z,5.97
2023-05-08T11:33:41.969Z,7.00
2023-05-08T11:36:18.458Z,5.57
2023-05-08T11:39:13.788Z,6.05
2023-05-08T11:41:49.734Z,5.47
2023-05-08T11:44:26.732Z,6.63
2023-05-08T11:47:02.527Z,5.28
2023-05-08T11:49:41.121Z,5.60
2023-05-08T11:52:21.927Z,6.25
2023-05-08T11:55:01.805Z,5.65
2023-05-08T11:57:39.907Z,5.77
2023-05-08T12:00:18.539Z,5.15
2023-05-08T12:02:56.881Z,4.00
2023-05-08T12:05:37.157Z,5.40
2023-05-08T12:08:13.082Z,7.35
2023-05-08T12:10:57.300Z,5.28
2023-05-08T12:13:33.816Z,5.60
2023-05-08T12:16:15.931Z,3.53
2023-05-08T12:18:53.099Z,5.55
2023-05-08T12:21:34.898Z,5.00
2023-05-08T12:24:12.707Z,7.18
2023-05-08T12:26:48.452Z,4.78
2023-05-08T12:29:28.833Z,4.63
2023-05-08T12:32:04.206Z,5.00
2023-05-08T12:34:40.746Z,5.80
2023-05-08T12:40:37.566Z,4.35
2023-05-08T12:43:18.858Z,9.07
2023-05-08T12:46:01.353Z,5.82
2023-05-08T12:48:38.287Z,7.03
2023-05-08T12:51:17.404Z,4.43
2023-05-08T12:53:55.381Z,4.90
2023-05-08T12:56:33.912Z,6.18
2023-05-08T12:59:13.740Z,4.47
2023-05-08T13:01:55.363Z,5.40
2023-05-08T13:04:35.464Z,5.15
2023-05-08T13:07:13.705Z,8.25
2023-05-08T13:10:04.734Z,4.43
2023-05-08T13:12:44.286Z,4.30
2023-05-08T13:15:24.390Z,4.38
2023-05-08T13:18:04.488Z,5.05
2023-05-08T13:20:41.237Z,5.70
2023-05-08T13:26:22.326Z,3.85
2023-05-08T13:28:57.736Z,5.90
2023-05-08T13:31:40.291Z,9.73
2023-05-08T13:34:18.789Z,5.30
2023-05-08T13:37:00.342Z,4.30
2023-05-08T13:39:37.681Z,5.70
2023-05-08T13:42:15.723Z,3.45
2023-05-08T13:44:52.989Z,5.50
2023-05-08T13:47:34.194Z,4.28
2023-05-08T13:50:22.352Z,7.50
2023-05-08T13:52:58.698Z,5.47
2023-05-08T13:55:40.996Z,6.53
2023-05-08T13:58:15.395Z,6.50
2023-05-08T14:00:55.715Z,5.93
2023-05-08T14:03:35.419Z,5.13
2023-05-08T14:06:12.490Z,4.75
2023-05-08T14:08:51.467Z,4.95
2023-05-08T14:11:31.077Z,3.88
2023-05-08T14:14:07.174Z,5.20
2023-05-08T14:16:43.428Z,4.80
2023-05-08T14:19:28.202Z,3.13
2023-05-08T14:22:04.229Z,5.63
2023-05-08T14:24:44.964Z,3.88
2023-05-08T14:27:26.832Z,4.65
2023-05-08T14:30:04.494Z,6.95
2023-05-08T14:32:43.805Z,6.05
2023-05-08T14:35:25.632Z,6.30
2023-05-08T14:38:03.322Z,3.55
2023-05-08T14:40:39.400Z,4.57
2023-05-08T14:43:16.659Z,3.88
2023-05-08T14:45:53.152Z,3.95
2023-05-08T14:51:12.794Z,3.77
2023-05-08T14:53:52.433Z,3.47
2023-05-08T14:56:28.925Z,3.50
2023-05-08T14:59:08.412Z,6.35
2023-05-08T15:01:51.309Z,3.60
2023-05-08T15:04:36.658Z,4.10
2023-05-08T15:07:22.895Z,3.35
2023-05-08T15:12:56.275Z,2.60
2023-05-08T15:15:36.792Z,3.13
2023-05-08T15:18:16.048Z,7.00
2023-05-08T15:20:55.716Z,4.30
2023-05-08T15:23:36.746Z,3.80
2023-05-08T15:26:10.483Z,9.57
2023-05-08T15:28:52.631Z,4.32
2023-05-08T15:31:30.309Z,5.53
2023-05-08T15:34:06.340Z,2.85
2023-05-08T15:39:52.706Z,2.85
2023-05-08T15:42:38.644Z,4.40
2023-05-08T15:48:21.620Z,5.47
2023-05-08T15:57:08.496Z,3.42
2023-05-08T16:03:03.966Z,4.25
2023-05-08T16:05:47.702Z,2.95
2023-05-08T16:08:24.314Z,5.10
2023-05-08T16:13:47.696Z,3.13
2023-05-08T16:16:26.696Z,3.67
2023-05-08T16:19:10.031Z,5.33
2023-05-08T16:21:50.240Z,2.47
2023-05-08T16:24:27.311Z,5.22
2023-05-08T16:27:03.857Z,6.75
2023-05-08T16:29:42.209Z,11.30
2023-05-08T16:32:23.498Z,14.55
2023-05-08T16:35:06.244Z,7.68
2023-05-08T16:37:42.396Z,15.82
2023-05-08T16:40:18.786Z,16.05
2023-05-08T16:42:55.687Z,29.52
2023-05-08T16:45:35.117Z,34.20
2023-05-08T16:48:12.629Z,20.00
2023-05-08T16:50:54.103Z,4.70
2023-05-08T16:53:29.999Z,4.85
2023-05-08T16:58:44.023Z,3.67
2023-05-08T17:01:25.042Z,3.47
2023-05-08T17:04:03.720Z,4.90
2023-05-08T17:06:42.891Z,3.05
2023-05-08T17:09:21.170Z,3.13
2023-05-08T17:12:04.928Z,2.90
2023-05-08T17:17:44.724Z,42.22
2023-05-08T17:20:21.530Z,116.72
2023-05-08T17:23:01.534Z,62.70
2023-05-08T17:28:26.581Z,34.15
2023-05-08T17:34:02.276Z,35.10
2023-05-08T17:36:42.333Z,13.93
2023-05-08T17:39:36.608Z,44.75
2023-05-08T17:42:13.822Z,66.80
2023-05-08T17:44:55.341Z,91.13
2023-05-08T17:47:31.014Z,115.10
2023-05-08T17:50:22.526Z,122.30
2023-05-08T17:53:00.690Z,59.67
2023-05-08T17:55:41.793Z,23.25
2023-05-08T17:58:18.142Z,15.60
2023-05-08T18:00:56.414Z,18.20
2023-05-08T18:03:34.994Z,13.50
2023-05-08T18:06:13.794Z,8.85
2023-05-08T18:08:50.556Z,6.80
2023-05-08T18:11:30.303Z,5.15
2023-05-08T18:14:08.849Z,6.30
2023-05-08T18:16:44.334Z,5.40
2023-05-08T18:19:24.089Z,4.78
2023-05-08T18:22:03.456Z,4.03
2023-05-08T18:24:39.879Z,4.65
2023-05-08T18:27:21.617Z,6.07
2023-05-08T18:29:57.092Z,4.55
2023-05-08T18:32:31.705Z,5.15
2023-05-08T18:35:07.028Z,6.28
2023-05-08T18:37:41.624Z,5.90
2023-05-08T18:40:17.290Z,4.90
2023-05-08T18:42:57.024Z,3.90
2023-05-08T18:45:31.787Z,7.13
2023-05-08T18:48:06.850Z,4.37
2023-05-08T18:50:42.126Z,5.10
2023-05-08T18:53:17.539Z,5.87
2023-05-08T18:55:53.280Z,3.15
2023-05-08T18:58:33.729Z,4.80
2023-05-08T19:01:09.623Z,10.87
2023-05-08T19:03:45.102Z,4.45
2023-05-08T19:06:21.886Z,3.75
2023-05-08T19:08:57.560Z,5.00
2023-05-08T19:14:21.368Z,3.25
2023-05-08T19:16:58.509Z,6.40
2023-05-08T19:19:37.105Z,3.65
2023-05-08T19:22:15.246Z,3.75
2023-05-08T19:24:56.948Z,4.45
2023-05-08T19:27:32.605Z,5.03
2023-05-08T19:30:12.857Z,4.13
2023-05-08T19:32:48.114Z,3.80
2023-05-08T19:35:25.807Z,5.73
2023-05-08T19:38:01.541Z,3.33
2023-05-08T19:40:48.292Z,6.03
2023-05-08T19:43:29.237Z,4.53
2023-05-08T19:46:09.406Z,4.55
2023-05-08T19:48:46.439Z,6.40
2023-05-08T19:51:25.318Z,5.95
2023-05-08T19:53:59.813Z,4.65
2023-05-08T19:56:37.232Z,6.53
2023-05-08T19:59:16.038Z,4.80
2023-05-08T20:01:57.455Z,5.53
2023-05-08T20:04:42.145Z,6.45
2023-05-08T20:07:31.456Z,6.63
2023-05-08T20:10:08.713Z,5.85
2023-05-08T20:12:49.632Z,7.20
2023-05-08T20:15:28.080Z,5.68
2023-05-08T20:18:12.266Z,6.32
2023-05-08T20:20:55.188Z,7.00
2023-05-08T20:24:13.617Z,29.27
2023-05-08T20:27:01.853Z,95.57
2023-05-08T20:29:47.504Z,32.58
2023-05-08T20:32:38.735Z,15.93
2023-05-08T20:35:18.285Z,152.50
2023-05-08T20:37:55.995Z,109.67
2023-05-08T20:40:43.260Z,55.92
2023-05-08T20:43:23.751Z,19.15
2023-05-08T20:46:17.788Z,9.05
2023-05-08T20:49:15.581Z,9.25
2023-05-08T20:52:17.855Z,7.35
2023-05-08T20:55:04.856Z,12.43
2023-05-08T21:12:45.689Z,9.25
2023-05-08T21:18:25.614Z,7.63
2023-05-08T21:21:03.800Z,6.93
2023-05-08T21:23:42.856Z,11.15
2023-05-08T21:26:28.391Z,10.45
2023-05-08T21:29:06.615Z,9.15
2023-05-08T22:00:08.323Z,8.45
2023-05-08T22:02:45.145Z,9.00
2023-05-08T22:08:18.422Z,7.93
2023-05-08T22:11:04.826Z,7.10
2023-05-08T22:13:42.687Z,9.50
2023-05-08T22:16:27.074Z,6.10
2023-05-08T22:22:05.042Z,7.00
2023-05-08T22:24:42.824Z,11.38
2023-05-08T22:27:25.089Z,12.65
2023-05-08T22:30:02.235Z,10.90
2023-05-08T22:32:54.649Z,11.25
2023-05-08T22:38:40.885Z,8.57
2023-05-08T22:44:35.622Z,7.15
2023-05-08T23:05:59.938Z,11.18
2023-05-08T23:08:48.840Z,12.02
2023-05-08T23:11:40.473Z,10.70
2023-05-08T23:14:22.100Z,11.20
2023-05-08T23:16:58.850Z,10.30
2023-05-08T23:19:42.505Z,10.90
2023-05-08T23:22:23.362Z,9.57
2023-05-08T23:25:12.329Z,10.50
2023-05-08T23:27:51.861Z,8.52
2023-05-08T23:30:30.336Z,11.07
2023-05-08T23:33:06.084Z,11.47
2023-05-08T23:35:45.498Z,10.55
2023-05-08T23:38:27.949Z,11.00
2023-05-08T23:41:09.131Z,9.82
2023-05-08T23:43:45.551Z,11.07
2023-05-08T23:46:22.880Z,10.13
2023-05-08T23:48:58.338Z,9.57
2023-05-08T23:51:36.186Z,12.27
2023-05-08T23:54:16.620Z,10.90
2023-05-08T23:56:55.477Z,11.40
2023-05-08T23:59:32.084Z,14.02
